Archival Weather

Prince Abdulmajeed Bin Abdula

Prince Abdulmajeed Bin Abdula, Saudi Arabia (OEAO)

Report from: Monday, May 23, 2022 3:00 PM UTC
Current time: Tuesday, August 16, 2022 7:16 AM UTC

Current weather
Weather history
Weather forecast

Temperature35.0°C (95.0°F)
Heat index32.3°C (90.1°F)
Dew point-6.0°C (21.2°F)
Winds 10 kts (5.1 m/s, 11.5 mph) North (360°)
Clouds Sky clear
Altimeter29.77 in.Hg (1008 mB)
Relative humidity7 %
Density altitude2,515 ft. (767 m)
Remarks Ceiling and visibility OK
No significant changes expected in the next two hours
Flight conditions Visual Meteorological Conditions
Raw dataOEAO 231500Z 36010KT CAVOK 35/M06 Q1008 NOSIG
An error has occurred. This application may no longer respond until reloaded. Reload 🗙